sensor_id;sensor_type;location;lat;lon;timestamp;temperature;humidity
70947;DHT22;58605;48.700;8.760;2022-07-03T00:02:12;14.10;99.90
70947;DHT22;58605;48.700;8.760;2022-07-03T00:04:39;14.10;99.90
70947;DHT22;58605;48.700;8.760;2022-07-03T00:07:05;14.00;99.90
70947;DHT22;58605;48.700;8.760;2022-07-03T00:09:31;14.00;99.90
70947;DHT22;58605;48.700;8.760;2022-07-03T00:11:57;14.00;99.90
70947;DHT22;58605;48.700;8.760;2022-07-03T00:14:25;14.00;99.90
70947;DHT22;58605;48.700;8.760;2022-07-03T00:16:51;14.00;99.90
70947;DHT22;58605;48.700;8.760;2022-07-03T00:19:17;13.90;99.90
70947;DHT22;58605;48.700;8.760;2022-07-03T00:21:47;13.90;99.90
70947;DHT22;58605;48.700;8.760;2022-07-03T00:24:20;13.90;99.90
70947;DHT22;58605;48.700;8.760;2022-07-03T00:26:51;13.80;99.90
70947;DHT22;58605;48.700;8.760;2022-07-03T00:29:20;13.80;99.90
70947;DHT22;58605;48.700;8.760;2022-07-03T00:31:49;13.80;99.90
70947;DHT22;58605;48.700;8.760;2022-07-03T00:34:16;13.80;99.90
70947;DHT22;58605;48.700;8.760;2022-07-03T00:36:45;13.70;99.90
70947;DHT22;58605;48.700;8.760;2022-07-03T00:39:11;13.70;99.90
70947;DHT22;58605;48.700;8.760;2022-07-03T00:41:38;13.70;99.90
70947;DHT22;58605;48.700;8.760;2022-07-03T00:44:04;13.70;99.90
70947;DHT22;58605;48.700;8.760;2022-07-03T00:46:31;13.70;99.90
70947;DHT22;58605;48.700;8.760;2022-07-03T00:48:59;13.70;99.90
70947;DHT22;58605;48.700;8.760;2022-07-03T00:51:26;13.70;99.90
70947;DHT22;58605;48.700;8.760;2022-07-03T00:53:55;13.60;99.90
70947;DHT22;58605;48.700;8.760;2022-07-03T00:56:24;13.60;99.90
70947;DHT22;58605;48.700;8.760;2022-07-03T00:58:54;13.60;99.90
70947;DHT22;58605;48.700;8.760;2022-07-03T01:01:48;13.50;99.90
70947;DHT22;58605;48.700;8.760;2022-07-03T01:04:26;13.50;99.90
70947;DHT22;58605;48.700;8.760;2022-07-03T01:07:02;13.40;99.90
70947;DHT22;58605;48.700;8.760;2022-07-03T01:09:37;13.40;99.90
70947;DHT22;58605;48.700;8.760;2022-07-03T01:12:10;13.40;99.90
70947;DHT22;58605;48.700;8.760;2022-07-03T01:14:47;13.40;99.90
70947;DHT22;58605;48.700;8.760;2022-07-03T01:17:22;13.30;99.90
70947;DHT22;58605;48.700;8.760;2022-07-03T01:19:54;13.30;99.90
70947;DHT22;58605;48.700;8.760;2022-07-03T01:22:29;13.30;99.90
70947;DHT22;58605;48.700;8.760;2022-07-03T01:28:10;13.20;99.90
70947;DHT22;58605;48.700;8.760;2022-07-03T01:30:38;13.20;99.90
70947;DHT22;58605;48.700;8.760;2022-07-03T01:33:07;13.20;99.90
70947;DHT22;58605;48.700;8.760;2022-07-03T01:35:36;13.20;99.90
70947;DHT22;58605;48.700;8.760;2022-07-03T01:38:04;13.30;99.90
70947;DHT22;58605;48.700;8.760;2022-07-03T01:40:32;13.30;99.90
70947;DHT22;58605;48.700;8.760;2022-07-03T01:42:59;13.20;99.90
70947;DHT22;58605;48.700;8.760;2022-07-03T01:45:31;13.20;99.90
70947;DHT22;58605;48.700;8.760;2022-07-03T01:47:58;13.10;99.90
70947;DHT22;58605;48.700;8.760;2022-07-03T01:50:25;13.00;99.90
70947;DHT22;58605;48.700;8.760;2022-07-03T01:52:52;13.00;99.90
70947;DHT22;58605;48.700;8.760;2022-07-03T01:55:19;12.90;99.90
70947;DHT22;58605;48.700;8.760;2022-07-03T01:57:47;13.00;99.90
70947;DHT22;58605;48.700;8.760;2022-07-03T02:00:17;13.00;99.90
70947;DHT22;58605;48.700;8.760;2022-07-03T02:02:52;13.00;99.90
70947;DHT22;58605;48.700;8.760;2022-07-03T02:05:32;13.00;99.90
70947;DHT22;58605;48.700;8.760;2022-07-03T02:08:06;12.80;99.90
70947;DHT22;58605;48.700;8.760;2022-07-03T02:10:34;12.70;99.90
70947;DHT22;58605;48.700;8.760;2022-07-03T02:13:08;12.70;99.90
70947;DHT22;58605;48.700;8.760;2022-07-03T02:15:36;12.60;99.90
70947;DHT22;58605;48.700;8.760;2022-07-03T02:18:11;12.70;99.90
70947;DHT22;58605;48.700;8.760;2022-07-03T02:20:47;12.70;99.90
70947;DHT22;58605;48.700;8.760;2022-07-03T02:23:17;12.80;99.90
70947;DHT22;58605;48.700;8.760;2022-07-03T02:25:47;12.80;99.90
70947;DHT22;58605;48.700;8.760;2022-07-03T02:28:25;12.90;99.90
70947;DHT22;58605;48.700;8.760;2022-07-03T02:30:59;12.80;99.90
70947;DHT22;58605;48.700;8.760;2022-07-03T02:33:30;12.90;99.90
70947;DHT22;58605;48.700;8.760;2022-07-03T02:35:57;12.90;99.90
70947;DHT22;58605;48.700;8.760;2022-07-03T02:38:24;12.90;99.90
70947;DHT22;58605;48.700;8.760;2022-07-03T02:40:56;12.90;99.90
70947;DHT22;58605;48.700;8.760;2022-07-03T02:43:28;12.80;99.90
70947;DHT22;58605;48.700;8.760;2022-07-03T02:46:02;12.80;99.90
70947;DHT22;58605;48.700;8.760;2022-07-03T02:48:56;12.80;99.90
70947;DHT22;58605;48.700;8.760;2022-07-03T02:51:27;12.90;99.90
70947;DHT22;58605;48.700;8.760;2022-07-03T02:53:59;12.90;99.90
70947;DHT22;58605;48.700;8.760;2022-07-03T02:56:32;13.00;99.90
70947;DHT22;58605;48.700;8.760;2022-07-03T02:59:08;12.80;99.90
70947;DHT22;58605;48.700;8.760;2022-07-03T03:01:46;12.70;99.90
70947;DHT22;58605;48.700;8.760;2022-07-03T03:04:21;12.60;99.90
70947;DHT22;58605;48.700;8.760;2022-07-03T03:06:52;12.50;99.90
70947;DHT22;58605;48.700;8.760;2022-07-03T03:09:20;12.40;99.90
70947;DHT22;58605;48.700;8.760;2022-07-03T03:11:50;12.40;99.90
70947;DHT22;58605;48.700;8.760;2022-07-03T03:14:20;12.40;99.90
70947;DHT22;58605;48.700;8.760;2022-07-03T03:16:47;12.30;99.90
70947;DHT22;58605;48.700;8.760;2022-07-03T03:19:20;12.40;99.90
70947;DHT22;58605;48.700;8.760;2022-07-03T03:21:56;12.30;99.90
70947;DHT22;58605;48.700;8.760;2022-07-03T03:24:24;12.20;99.90
70947;DHT22;58605;48.700;8.760;2022-07-03T03:26:50;12.20;99.90
70947;DHT22;58605;48.700;8.760;2022-07-03T03:29:17;12.20;99.90
70947;DHT22;58605;48.700;8.760;2022-07-03T03:31:43;12.10;99.90
70947;DHT22;58605;48.700;8.760;2022-07-03T03:34:10;12.00;99.90
70947;DHT22;58605;48.700;8.760;2022-07-03T03:36:38;11.90;99.90
70947;DHT22;58605;48.700;8.760;2022-07-03T03:39:04;12.00;99.90
70947;DHT22;58605;48.700;8.760;2022-07-03T03:41:30;11.90;99.90
70947;DHT22;58605;48.700;8.760;2022-07-03T03:43:56;12.00;99.90
70947;DHT22;58605;48.700;8.760;2022-07-03T03:46:22;12.00;99.90
70947;DHT22;58605;48.700;8.760;2022-07-03T03:48:48;12.00;99.90
70947;DHT22;58605;48.700;8.760;2022-07-03T03:51:14;12.00;99.90
70947;DHT22;58605;48.700;8.760;2022-07-03T03:53:43;12.00;99.90
70947;DHT22;58605;48.700;8.760;2022-07-03T03:56:10;12.10;99.90
70947;DHT22;58605;48.700;8.760;2022-07-03T03:58:38;12.00;99.90
70947;DHT22;58605;48.700;8.760;2022-07-03T04:01:05;12.10;99.90
70947;DHT22;58605;48.700;8.760;2022-07-03T04:03:33;12.10;99.90
70947;DHT22;58605;48.700;8.760;2022-07-03T04:05:59;12.10;99.90
70947;DHT22;58605;48.700;8.760;2022-07-03T04:08:27;12.10;99.90
70947;DHT22;58605;48.700;8.760;2022-07-03T04:10:55;12.30;99.90
70947;DHT22;58605;48.700;8.760;2022-07-03T04:13:21;12.40;99.90
70947;DHT22;58605;48.700;8.760;2022-07-03T04:15:48;12.40;99.90
70947;DHT22;58605;48.700;8.760;2022-07-03T04:18:14;12.40;99.90
70947;DHT22;58605;48.700;8.760;2022-07-03T04:20:41;12.40;99.90
70947;DHT22;58605;48.700;8.760;2022-07-03T04:23:07;12.40;99.90
70947;DHT22;58605;48.700;8.760;2022-07-03T04:25:33;12.40;99.90
70947;DHT22;58605;48.700;8.760;2022-07-03T04:28:01;12.50;99.90
70947;DHT22;58605;48.700;8.760;2022-07-03T04:30:27;12.50;99.90
70947;DHT22;58605;48.700;8.760;2022-07-03T04:32:53;12.50;99.90
70947;DHT22;58605;48.700;8.760;2022-07-03T04:35:19;12.60;99.90
70947;DHT22;58605;48.700;8.760;2022-07-03T04:37:45;12.70;99.90
70947;DHT22;58605;48.700;8.760;2022-07-03T04:40:13;12.80;99.90
70947;DHT22;58605;48.700;8.760;2022-07-03T04:42:39;12.90;99.90
70947;DHT22;58605;48.700;8.760;2022-07-03T04:45:08;13.00;99.90
70947;DHT22;58605;48.700;8.760;2022-07-03T04:47:34;13.20;99.90
70947;DHT22;58605;48.700;8.760;2022-07-03T04:50:00;13.30;99.90
70947;DHT22;58605;48.700;8.760;2022-07-03T04:52:26;13.40;99.90
70947;DHT22;58605;48.700;8.760;2022-07-03T04:54:52;13.50;99.90
70947;DHT22;58605;48.700;8.760;2022-07-03T04:57:18;13.50;99.90
70947;DHT22;58605;48.700;8.760;2022-07-03T04:59:44;13.50;99.90
70947;DHT22;58605;48.700;8.760;2022-07-03T05:02:13;13.60;99.90
70947;DHT22;58605;48.700;8.760;2022-07-03T05:04:39;13.70;99.90
70947;DHT22;58605;48.700;8.760;2022-07-03T05:07:05;13.80;99.90
70947;DHT22;58605;48.700;8.760;2022-07-03T05:09:31;13.90;99.90
70947;DHT22;58605;48.700;8.760;2022-07-03T05:11:57;13.90;99.90
70947;DHT22;58605;48.700;8.760;2022-07-03T05:14:23;14.00;99.90
70947;DHT22;58605;48.700;8.760;2022-07-03T05:16:49;14.10;99.90
70947;DHT22;58605;48.700;8.760;2022-07-03T05:19:17;14.20;99.90
70947;DHT22;58605;48.700;8.760;2022-07-03T05:21:43;14.40;99.90
70947;DHT22;58605;48.700;8.760;2022-07-03T05:24:09;14.50;99.90
70947;DHT22;58605;48.700;8.760;2022-07-03T05:26:42;14.60;99.90
70947;DHT22;58605;48.700;8.760;2022-07-03T05:29:08;14.70;99.90
70947;DHT22;58605;48.700;8.760;2022-07-03T05:31:34;14.80;99.90
70947;DHT22;58605;48.700;8.760;2022-07-03T05:34:00;14.90;99.90
70947;DHT22;58605;48.700;8.760;2022-07-03T05:36:28;15.00;99.90
70947;DHT22;58605;48.700;8.760;2022-07-03T05:38:54;15.10;99.90
70947;DHT22;58605;48.700;8.760;2022-07-03T05:41:38;15.20;99.90
70947;DHT22;58605;48.700;8.760;2022-07-03T05:44:04;15.40;99.90
70947;DHT22;58605;48.700;8.760;2022-07-03T05:46:31;15.50;99.90
70947;DHT22;58605;48.700;8.760;2022-07-03T05:48:57;15.60;99.90
70947;DHT22;58605;48.700;8.760;2022-07-03T05:51:23;15.80;99.90
70947;DHT22;58605;48.700;8.760;2022-07-03T05:53:50;15.90;99.90
70947;DHT22;58605;48.700;8.760;2022-07-03T05:56:23;16.10;99.90
70947;DHT22;58605;48.700;8.760;2022-07-03T05:58:50;16.20;99.90
70947;DHT22;58605;48.700;8.760;2022-07-03T06:01:16;16.40;99.90
70947;DHT22;58605;48.700;8.760;2022-07-03T06:03:42;16.50;99.90
70947;DHT22;58605;48.700;8.760;2022-07-03T06:06:08;16.60;99.90
70947;DHT22;58605;48.700;8.760;2022-07-03T06:08:34;16.70;99.90
70947;DHT22;58605;48.700;8.760;2022-07-03T06:11:03;16.90;99.90
70947;DHT22;58605;48.700;8.760;2022-07-03T06:13:29;17.10;99.90
70947;DHT22;58605;48.700;8.760;2022-07-03T06:15:55;17.40;99.90
70947;DHT22;58605;48.700;8.760;2022-07-03T06:18:21;17.60;99.90
70947;DHT22;58605;48.700;8.760;2022-07-03T06:20:47;17.80;99.90
70947;DHT22;58605;48.700;8.760;2022-07-03T06:23:13;17.80;99.90
70947;DHT22;58605;48.700;8.760;2022-07-03T06:25:39;17.90;99.90
70947;DHT22;58605;48.700;8.760;2022-07-03T06:28:06;18.00;99.90
70947;DHT22;58605;48.700;8.760;2022-07-03T06:30:33;18.00;99.90
70947;DHT22;58605;48.700;8.760;2022-07-03T06:32:59;18.20;99.90
70947;DHT22;58605;48.700;8.760;2022-07-03T06:35:25;18.40;99.90
70947;DHT22;58605;48.700;8.760;2022-07-03T06:37:51;18.60;99.90
70947;DHT22;58605;48.700;8.760;2022-07-03T06:40:17;18.70;99.90
70947;DHT22;58605;48.700;8.760;2022-07-03T06:42:43;18.90;99.40
70947;DHT22;58605;48.700;8.760;2022-07-03T06:45:10;19.10;96.80
70947;DHT22;58605;48.700;8.760;2022-07-03T06:47:37;19.30;97.40
70947;DHT22;58605;48.700;8.760;2022-07-03T06:50:04;19.20;94.90
70947;DHT22;58605;48.700;8.760;2022-07-03T06:52:31;19.00;94.90
70947;DHT22;58605;48.700;8.760;2022-07-03T06:54:57;18.90;94.90
70947;DHT22;58605;48.700;8.760;2022-07-03T06:57:23;18.80;95.00
70947;DHT22;58605;48.700;8.760;2022-07-03T06:59:49;18.60;95.60
70947;DHT22;58605;48.700;8.760;2022-07-03T07:02:16;18.40;95.70
70947;DHT22;58605;48.700;8.760;2022-07-03T07:04:42;18.20;96.40
70947;DHT22;58605;48.700;8.760;2022-07-03T07:07:10;18.10;96.90
70947;DHT22;58605;48.700;8.760;2022-07-03T07:09:36;18.10;97.10
70947;DHT22;58605;48.700;8.760;2022-07-03T07:12:02;18.00;97.70
70947;DHT22;58605;48.700;8.760;2022-07-03T07:14:28;18.10;97.70
70947;DHT22;58605;48.700;8.760;2022-07-03T07:16:54;18.10;97.60
70947;DHT22;58605;48.700;8.760;2022-07-03T07:19:22;18.00;97.50
70947;DHT22;58605;48.700;8.760;2022-07-03T07:21:48;17.90;98.50
70947;DHT22;58605;48.700;8.760;2022-07-03T07:24:14;17.90;99.50
70947;DHT22;58605;48.700;8.760;2022-07-03T07:26:40;17.90;99.70
70947;DHT22;58605;48.700;8.760;2022-07-03T07:29:06;17.90;99.50
70947;DHT22;58605;48.700;8.760;2022-07-03T07:31:32;18.00;98.20
70947;DHT22;58605;48.700;8.760;2022-07-03T07:33:58;18.00;98.90
70947;DHT22;58605;48.700;8.760;2022-07-03T07:36:26;18.00;99.00
70947;DHT22;58605;48.700;8.760;2022-07-03T07:38:52;18.00;99.60
70947;DHT22;58605;48.700;8.760;2022-07-03T07:41:18;18.00;99.40
70947;DHT22;58605;48.700;8.760;2022-07-03T07:43:44;18.00;99.90
70947;DHT22;58605;48.700;8.760;2022-07-03T07:46:10;18.10;99.10
70947;DHT22;58605;48.700;8.760;2022-07-03T07:48:36;18.10;98.80
70947;DHT22;58605;48.700;8.760;2022-07-03T07:51:02;18.10;98.10
70947;DHT22;58605;48.700;8.760;2022-07-03T07:53:30;18.10;98.10
70947;DHT22;58605;48.700;8.760;2022-07-03T07:55:56;18.20;98.60
70947;DHT22;58605;48.700;8.760;2022-07-03T07:58:22;18.20;97.50
70947;DHT22;58605;48.700;8.760;2022-07-03T08:00:48;18.30;96.50
70947;DHT22;58605;48.700;8.760;2022-07-03T08:03:33;18.30;96.00
70947;DHT22;58605;48.700;8.760;2022-07-03T08:06:17;18.30;96.70
70947;DHT22;58605;48.700;8.760;2022-07-03T08:08:45;18.30;96.00
70947;DHT22;58605;48.700;8.760;2022-07-03T08:11:11;18.30;96.60
70947;DHT22;58605;48.700;8.760;2022-07-03T08:13:37;18.20;98.00
70947;DHT22;58605;48.700;8.760;2022-07-03T08:16:03;18.20;97.60
70947;DHT22;58605;48.700;8.760;2022-07-03T08:18:30;18.30;97.10
70947;DHT22;58605;48.700;8.760;2022-07-03T08:20:56;18.30;96.00
70947;DHT22;58605;48.700;8.760;2022-07-03T08:23:22;18.30;95.40
70947;DHT22;58605;48.700;8.760;2022-07-03T08:25:49;18.40;94.60
70947;DHT22;58605;48.700;8.760;2022-07-03T08:28:15;18.30;95.10
70947;DHT22;58605;48.700;8.760;2022-07-03T08:30:41;18.40;94.20
70947;DHT22;58605;48.700;8.760;2022-07-03T08:33:07;18.40;94.30
70947;DHT22;58605;48.700;8.760;2022-07-03T08:35:33;18.40;95.20
70947;DHT22;58605;48.700;8.760;2022-07-03T08:37:59;18.40;93.70
70947;DHT22;58605;48.700;8.760;2022-07-03T08:40:25;18.40;92.90
70947;DHT22;58605;48.700;8.760;2022-07-03T08:42:54;18.50;92.10
70947;DHT22;58605;48.700;8.760;2022-07-03T08:45:22;18.40;92.20
70947;DHT22;58605;48.700;8.760;2022-07-03T08:47:49;18.50;91.60
70947;DHT22;58605;48.700;8.760;2022-07-03T08:50:16;18.40;92.30
70947;DHT22;58605;48.700;8.760;2022-07-03T08:52:44;18.50;91.80
70947;DHT22;58605;48.700;8.760;2022-07-03T08:55:11;18.50;90.90
70947;DHT22;58605;48.700;8.760;2022-07-03T08:57:40;18.60;91.10
70947;DHT22;58605;48.700;8.760;2022-07-03T09:00:12;18.60;89.80
70947;DHT22;58605;48.700;8.760;2022-07-03T09:02:39;18.60;90.60
70947;DHT22;58605;48.700;8.760;2022-07-03T09:05:08;18.60;90.10
70947;DHT22;58605;48.700;8.760;2022-07-03T09:07:35;18.60;90.60
70947;DHT22;58605;48.700;8.760;2022-07-03T09:10:02;18.60;90.40
70947;DHT22;58605;48.700;8.760;2022-07-03T09:12:30;18.60;90.40
70947;DHT22;58605;48.700;8.760;2022-07-03T09:14:56;18.70;89.60
70947;DHT22;58605;48.700;8.760;2022-07-03T09:17:23;18.70;88.60
70947;DHT22;58605;48.700;8.760;2022-07-03T09:19:49;18.70;88.10
70947;DHT22;58605;48.700;8.760;2022-07-03T09:22:20;18.70;90.00
70947;DHT22;58605;48.700;8.760;2022-07-03T09:24:47;18.70;87.60
70947;DHT22;58605;48.700;8.760;2022-07-03T09:27:17;18.70;87.50
70947;DHT22;58605;48.700;8.760;2022-07-03T09:29:50;18.80;86.30
70947;DHT22;58605;48.700;8.760;2022-07-03T09:32:17;18.80;85.30
70947;DHT22;58605;48.700;8.760;2022-07-03T09:34:45;18.80;87.70
70947;DHT22;58605;48.700;8.760;2022-07-03T09:37:11;18.80;85.70
70947;DHT22;58605;48.700;8.760;2022-07-03T09:39:40;18.90;85.60
70947;DHT22;58605;48.700;8.760;2022-07-03T09:42:07;18.80;86.10
70947;DHT22;58605;48.700;8.760;2022-07-03T09:44:37;18.90;84.30
70947;DHT22;58605;48.700;8.760;2022-07-03T09:47:08;18.90;85.20
70947;DHT22;58605;48.700;8.760;2022-07-03T09:49:46;18.90;82.90
70947;DHT22;58605;48.700;8.760;2022-07-03T09:52:26;18.90;82.90
70947;DHT22;58605;48.700;8.760;2022-07-03T09:54:52;18.90;82.90
70947;DHT22;58605;48.700;8.760;2022-07-03T09:57:19;19.00;83.50
70947;DHT22;58605;48.700;8.760;2022-07-03T09:59:45;19.00;83.10
70947;DHT22;58605;48.700;8.760;2022-07-03T10:02:11;19.00;82.60
70947;DHT22;58605;48.700;8.760;2022-07-03T10:04:37;19.00;82.20
70947;DHT22;58605;48.700;8.760;2022-07-03T10:07:05;19.10;81.30
70947;DHT22;58605;48.700;8.760;2022-07-03T10:09:32;19.10;81.30
70947;DHT22;58605;48.700;8.760;2022-07-03T10:11:59;19.10;80.80
70947;DHT22;58605;48.700;8.760;2022-07-03T10:14:27;19.10;81.20
70947;DHT22;58605;48.700;8.760;2022-07-03T10:16:53;19.10;81.90
70947;DHT22;58605;48.700;8.760;2022-07-03T10:19:22;19.10;83.00
70947;DHT22;58605;48.700;8.760;2022-07-03T10:21:51;19.10;81.80
70947;DHT22;58605;48.700;8.760;2022-07-03T10:24:21;19.10;81.20
70947;DHT22;58605;48.700;8.760;2022-07-03T10:26:49;19.20;80.10
70947;DHT22;58605;48.700;8.760;2022-07-03T10:29:15;19.10;80.70
70947;DHT22;58605;48.700;8.760;2022-07-03T10:31:44;19.20;80.00
70947;DHT22;58605;48.700;8.760;2022-07-03T10:34:11;19.30;79.30
70947;DHT22;58605;48.700;8.760;2022-07-03T10:36:39;19.30;78.90
70947;DHT22;58605;48.700;8.760;2022-07-03T10:39:06;19.30;79.90
70947;DHT22;58605;48.700;8.760;2022-07-03T10:41:36;19.30;79.20
70947;DHT22;58605;48.700;8.760;2022-07-03T10:44:23;19.30;79.80
70947;DHT22;58605;48.700;8.760;2022-07-03T10:47:45;19.40;79.70
70947;DHT22;58605;48.700;8.760;2022-07-03T10:50:13;19.30;79.00
70947;DHT22;58605;48.700;8.760;2022-07-03T10:52:40;19.30;78.80
70947;DHT22;58605;48.700;8.760;2022-07-03T10:55:07;19.40;78.30
70947;DHT22;58605;48.700;8.760;2022-07-03T10:57:35;19.40;77.70
70947;DHT22;58605;48.700;8.760;2022-07-03T11:00:13;19.40;78.00
70947;DHT22;58605;48.700;8.760;2022-07-03T11:02:41;19.40;78.90
70947;DHT22;58605;48.700;8.760;2022-07-03T11:05:12;19.40;78.30
70947;DHT22;58605;48.700;8.760;2022-07-03T11:07:44;19.50;77.70
70947;DHT22;58605;48.700;8.760;2022-07-03T11:10:36;19.50;77.10
70947;DHT22;58605;48.700;8.760;2022-07-03T11:13:10;19.50;77.10
70947;DHT22;58605;48.700;8.760;2022-07-03T11:15:39;19.50;76.50
70947;DHT22;58605;48.700;8.760;2022-07-03T11:18:20;19.60;77.20
70947;DHT22;58605;48.700;8.760;2022-07-03T11:27:18;19.50;77.50
70947;DHT22;58605;48.700;8.760;2022-07-03T11:29:52;19.60;76.30
70947;DHT22;58605;48.700;8.760;2022-07-03T11:32:48;19.60;76.30
70947;DHT22;58605;48.700;8.760;2022-07-03T11:35:45;19.60;77.20
70947;DHT22;58605;48.700;8.760;2022-07-03T11:38:15;19.70;76.70
70947;DHT22;58605;48.700;8.760;2022-07-03T11:40:42;19.70;77.00
70947;DHT22;58605;48.700;8.760;2022-07-03T11:43:10;19.70;75.70
70947;DHT22;58605;48.700;8.760;2022-07-03T11:45:39;19.80;75.90
70947;DHT22;58605;48.700;8.760;2022-07-03T11:48:08;20.20;72.30
70947;DHT22;58605;48.700;8.760;2022-07-03T11:50:38;20.10;73.60
70947;DHT22;58605;48.700;8.760;2022-07-03T11:53:32;19.90;74.70
70947;DHT22;58605;48.700;8.760;2022-07-03T11:56:02;19.90;73.40
70947;DHT22;58605;48.700;8.760;2022-07-03T11:58:43;19.90;73.50
70947;DHT22;58605;48.700;8.760;2022-07-03T12:01:12;19.90;73.60
70947;DHT22;58605;48.700;8.760;2022-07-03T12:03:53;19.90;73.60
70947;DHT22;58605;48.700;8.760;2022-07-03T12:06:20;19.90;73.80
70947;DHT22;58605;48.700;8.760;2022-07-03T12:08:48;20.00;74.30
70947;DHT22;58605;48.700;8.760;2022-07-03T12:11:16;20.00;73.70
70947;DHT22;58605;48.700;8.760;2022-07-03T12:13:43;20.00;73.50
70947;DHT22;58605;48.700;8.760;2022-07-03T12:16:12;20.00;74.10
70947;DHT22;58605;48.700;8.760;2022-07-03T12:18:50;20.00;72.50
70947;DHT22;58605;48.700;8.760;2022-07-03T12:21:23;20.00;72.50
70947;DHT22;58605;48.700;8.760;2022-07-03T12:23:51;20.00;72.40
70947;DHT22;58605;48.700;8.760;2022-07-03T12:26:30;20.10;72.10
70947;DHT22;58605;48.700;8.760;2022-07-03T12:28:58;20.20;72.30
70947;DHT22;58605;48.700;8.760;2022-07-03T12:31:26;20.20;72.30
70947;DHT22;58605;48.700;8.760;2022-07-03T12:33:52;20.10;72.70
70947;DHT22;58605;48.700;8.760;2022-07-03T12:36:19;20.10;72.20
70947;DHT22;58605;48.700;8.760;2022-07-03T12:38:47;20.10;71.60
70947;DHT22;58605;48.700;8.760;2022-07-03T12:41:15;20.70;71.20
70947;DHT22;58605;48.700;8.760;2022-07-03T12:43:44;21.50;73.00
70947;DHT22;58605;48.700;8.760;2022-07-03T12:46:19;21.70;68.60
70947;DHT22;58605;48.700;8.760;2022-07-03T12:48:47;21.10;69.00
70947;DHT22;58605;48.700;8.760;2022-07-03T12:51:14;20.90;69.70
70947;DHT22;58605;48.700;8.760;2022-07-03T12:53:41;20.70;71.40
70947;DHT22;58605;48.700;8.760;2022-07-03T12:56:08;21.00;71.70
70947;DHT22;58605;48.700;8.760;2022-07-03T12:58:35;21.00;72.50
70947;DHT22;58605;48.700;8.760;2022-07-03T13:01:28;22.70;71.10
70947;DHT22;58605;48.700;8.760;2022-07-03T13:03:56;23.60;66.70
70947;DHT22;58605;48.700;8.760;2022-07-03T13:06:23;24.10;67.80
70947;DHT22;58605;48.700;8.760;2022-07-03T13:08:54;25.20;62.50
70947;DHT22;58605;48.700;8.760;2022-07-03T13:11:28;25.60;62.90
70947;DHT22;58605;48.700;8.760;2022-07-03T13:14:03;25.50;59.80
70947;DHT22;58605;48.700;8.760;2022-07-03T13:16:36;25.40;60.80
70947;DHT22;58605;48.700;8.760;2022-07-03T13:19:13;25.10;60.60
70947;DHT22;58605;48.700;8.760;2022-07-03T13:21:39;24.40;61.60
70947;DHT22;58605;48.700;8.760;2022-07-03T13:24:06;24.20;64.00
70947;DHT22;58605;48.700;8.760;2022-07-03T13:26:32;23.50;63.50
70947;DHT22;58605;48.700;8.760;2022-07-03T13:28:59;23.30;64.20
70947;DHT22;58605;48.700;8.760;2022-07-03T13:31:25;22.50;65.40
70947;DHT22;58605;48.700;8.760;2022-07-03T13:33:52;22.10;67.40
70947;DHT22;58605;48.700;8.760;2022-07-03T13:36:20;21.70;68.00
70947;DHT22;58605;48.700;8.760;2022-07-03T13:38:46;21.40;69.00
70947;DHT22;58605;48.700;8.760;2022-07-03T13:41:12;21.20;69.40
70947;DHT22;58605;48.700;8.760;2022-07-03T13:43:38;20.80;71.40
70947;DHT22;58605;48.700;8.760;2022-07-03T13:46:04;20.80;70.10
70947;DHT22;58605;48.700;8.760;2022-07-03T13:48:30;20.90;69.20
70947;DHT22;58605;48.700;8.760;2022-07-03T13:50:57;20.80;68.90
70947;DHT22;58605;48.700;8.760;2022-07-03T13:53:24;21.60;70.90
70947;DHT22;58605;48.700;8.760;2022-07-03T13:55:50;22.60;68.30
70947;DHT22;58605;48.700;8.760;2022-07-03T13:58:16;23.40;67.00
70947;DHT22;58605;48.700;8.760;2022-07-03T14:00:42;24.00;63.40
70947;DHT22;58605;48.700;8.760;2022-07-03T14:03:08;24.80;63.50
70947;DHT22;58605;48.700;8.760;2022-07-03T14:05:35;24.80;59.60
70947;DHT22;58605;48.700;8.760;2022-07-03T14:08:01;24.90;57.10
70947;DHT22;58605;48.700;8.760;2022-07-03T14:10:28;24.20;58.60
70947;DHT22;58605;48.700;8.760;2022-07-03T14:12:54;23.70;57.50
70947;DHT22;58605;48.700;8.760;2022-07-03T14:15:20;23.50;61.60
70947;DHT22;58605;48.700;8.760;2022-07-03T14:17:47;22.70;60.70
70947;DHT22;58605;48.700;8.760;2022-07-03T14:20:14;22.30;63.90
70947;DHT22;58605;48.700;8.760;2022-07-03T14:22:40;22.00;65.30
70947;DHT22;58605;48.700;8.760;2022-07-03T14:25:07;21.90;58.50
70947;DHT22;58605;48.700;8.760;2022-07-03T14:27:37;22.10;64.50
70947;DHT22;58605;48.700;8.760;2022-07-03T14:30:22;22.20;58.70
70947;DHT22;58605;48.700;8.760;2022-07-03T14:33:06;22.10;63.90
70947;DHT22;58605;48.700;8.760;2022-07-03T14:35:32;21.70;65.20
70947;DHT22;58605;48.700;8.760;2022-07-03T14:37:58;21.80;63.20
70947;DHT22;58605;48.700;8.760;2022-07-03T14:40:24;21.60;64.00
70947;DHT22;58605;48.700;8.760;2022-07-03T14:42:52;21.30;65.50
70947;DHT22;58605;48.700;8.760;2022-07-03T14:45:18;21.10;66.20
70947;DHT22;58605;48.700;8.760;2022-07-03T14:47:44;20.90;66.40
70947;DHT22;58605;48.700;8.760;2022-07-03T14:50:10;20.90;66.50
70947;DHT22;58605;48.700;8.760;2022-07-03T14:52:36;20.90;65.30
70947;DHT22;58605;48.700;8.760;2022-07-03T14:55:02;20.90;65.40
70947;DHT22;58605;48.700;8.760;2022-07-03T14:57:31;20.90;65.40
70947;DHT22;58605;48.700;8.760;2022-07-03T15:00:06;20.90;65.60
70947;DHT22;58605;48.700;8.760;2022-07-03T15:02:42;20.90;65.80
70947;DHT22;58605;48.700;8.760;2022-07-03T15:05:10;20.80;65.90
70947;DHT22;58605;48.700;8.760;2022-07-03T15:07:38;20.80;65.90
70947;DHT22;58605;48.700;8.760;2022-07-03T15:10:07;21.10;64.60
70947;DHT22;58605;48.700;8.760;2022-07-03T15:12:37;21.20;64.50
70947;DHT22;58605;48.700;8.760;2022-07-03T15:15:06;21.10;65.20
70947;DHT22;58605;48.700;8.760;2022-07-03T15:17:34;21.00;65.20
70947;DHT22;58605;48.700;8.760;2022-07-03T15:20:02;21.00;65.30
70947;DHT22;58605;48.700;8.760;2022-07-03T15:22:29;21.20;66.10
70947;DHT22;58605;48.700;8.760;2022-07-03T15:24:57;21.70;64.80
70947;DHT22;58605;48.700;8.760;2022-07-03T15:27:24;21.50;64.50
70947;DHT22;58605;48.700;8.760;2022-07-03T15:29:51;21.40;64.80
70947;DHT22;58605;48.700;8.760;2022-07-03T15:32:19;21.30;65.20
70947;DHT22;58605;48.700;8.760;2022-07-03T15:34:45;21.80;66.80
70947;DHT22;58605;48.700;8.760;2022-07-03T15:37:24;22.70;63.00
70947;DHT22;58605;48.700;8.760;2022-07-03T15:39:59;22.40;63.60
70947;DHT22;58605;48.700;8.760;2022-07-03T15:42:35;22.20;64.00
70947;DHT22;58605;48.700;8.760;2022-07-03T15:45:14;22.60;66.10
70947;DHT22;58605;48.700;8.760;2022-07-03T15:47:51;23.80;62.30
70947;DHT22;58605;48.700;8.760;2022-07-03T15:50:28;24.60;60.80
70947;DHT22;58605;48.700;8.760;2022-07-03T15:52:56;24.60;59.50